Timber Lake, Colorado
Current Conditions -  °F | °C
As of 2:53 AM on Monday 22 Dec 2014 (Local Time) from KLHX Reporting Station
Overcast Overcast  
Wind Chill: 33°   Ceiling: 7000
Heat Index: 38°   Visibility: 10mi
Dew Point: 32°   Wind: 7mph
Humidity: 79%   Direction: 270°W
Pressure: 29.71"   Gusts: NA
Location:  37.8368°N, 103.544°W
Report Text: KLHX 220953Z AUTO 27006KT 10SM OVC070 03/00 A2971 RMK AO2 SLP050 T00330000
Loading
Personal Weather Stations






























Interactive Weather Map New forecast layout! Learn more

10-Day Weather Forecast

Advertisements
Track Severe Weather on mobile